sensor_id;sensor_type;location;lat;lon;timestamp;P1;durP1;ratioP1;P2;durP2;ratioP2
1765;SDS011;880;52.452;8.656;2023-11-19T00:01:49;7.82;;;7.32;;
1765;SDS011;880;52.452;8.656;2023-11-19T00:04:17;10.02;;;9.02;;
1765;SDS011;880;52.452;8.656;2023-11-19T00:06:44;8.40;;;7.90;;
1765;SDS011;880;52.452;8.656;2023-11-19T00:09:11;7.68;;;7.30;;
1765;SDS011;880;52.452;8.656;2023-11-19T00:11:38;8.35;;;7.95;;
1765;SDS011;880;52.452;8.656;2023-11-19T00:14:05;8.38;;;7.97;;
1765;SDS011;880;52.452;8.656;2023-11-19T00:16:34;7.60;;;7.20;;
1765;SDS011;880;52.452;8.656;2023-11-19T00:19:01;8.07;;;7.75;;
1765;SDS011;880;52.452;8.656;2023-11-19T00:21:30;8.77;;;8.35;;
1765;SDS011;880;52.452;8.656;2023-11-19T00:23:59;9.27;;;8.77;;
1765;SDS011;880;52.452;8.656;2023-11-19T00:26:26;8.25;;;7.80;;
1765;SDS011;880;52.452;8.656;2023-11-19T00:28:53;8.35;;;7.88;;
1765;SDS011;880;52.452;8.656;2023-11-19T00:31:22;8.50;;;8.00;;
1765;SDS011;880;52.452;8.656;2023-11-19T00:33:49;8.80;;;8.25;;
1765;SDS011;880;52.452;8.656;2023-11-19T00:36:16;9.00;;;8.40;;
1765;SDS011;880;52.452;8.656;2023-11-19T00:38:44;8.18;;;7.78;;
1765;SDS011;880;52.452;8.656;2023-11-19T00:41:11;9.15;;;8.65;;
1765;SDS011;880;52.452;8.656;2023-11-19T00:43:38;9.27;;;8.77;;
1765;SDS011;880;52.452;8.656;2023-11-19T00:46:06;10.57;;;9.98;;
1765;SDS011;880;52.452;8.656;2023-11-19T00:48:34;9.95;;;9.35;;
1765;SDS011;880;52.452;8.656;2023-11-19T00:51:01;9.43;;;8.93;;
1765;SDS011;880;52.452;8.656;2023-11-19T00:53:30;8.80;;;8.40;;
1765;SDS011;880;52.452;8.656;2023-11-19T00:55:58;9.63;;;9.20;;
1765;SDS011;880;52.452;8.656;2023-11-19T00:58:25;9.48;;;8.88;;
1765;SDS011;880;52.452;8.656;2023-11-19T01:00:52;8.85;;;8.38;;
1765;SDS011;880;52.452;8.656;2023-11-19T01:03:19;10.68;;;10.07;;
1765;SDS011;880;52.452;8.656;2023-11-19T01:05:46;10.27;;;9.68;;
1765;SDS011;880;52.452;8.656;2023-11-19T01:08:14;9.85;;;9.32;;
1765;SDS011;880;52.452;8.656;2023-11-19T01:10:42;11.82;;;11.10;;
1765;SDS011;880;52.452;8.656;2023-11-19T01:13:10;11.13;;;10.38;;
1765;SDS011;880;52.452;8.656;2023-11-19T01:15:37;11.25;;;10.45;;
1765;SDS011;880;52.452;8.656;2023-11-19T01:18:04;12.63;;;11.88;;
1765;SDS011;880;52.452;8.656;2023-11-19T01:20:31;11.80;;;11.10;;
1765;SDS011;880;52.452;8.656;2023-11-19T01:23:00;11.00;;;10.40;;
1765;SDS011;880;52.452;8.656;2023-11-19T01:25:27;12.10;;;11.27;;
1765;SDS011;880;52.452;8.656;2023-11-19T01:27:54;12.50;;;11.75;;
1765;SDS011;880;52.452;8.656;2023-11-19T01:32:52;9.65;;;9.25;;
1765;SDS011;880;52.452;8.656;2023-11-19T01:35:19;10.68;;;10.07;;
1765;SDS011;880;52.452;8.656;2023-11-19T01:37:46;12.27;;;11.57;;
1765;SDS011;880;52.452;8.656;2023-11-19T01:40:13;11.35;;;10.73;;
1765;SDS011;880;52.452;8.656;2023-11-19T01:42:40;10.77;;;10.30;;
1765;SDS011;880;52.452;8.656;2023-11-19T01:45:07;12.55;;;11.77;;
1765;SDS011;880;52.452;8.656;2023-11-19T01:47:36;11.57;;;10.93;;
1765;SDS011;880;52.452;8.656;2023-11-19T01:50:05;11.88;;;11.27;;
1765;SDS011;880;52.452;8.656;2023-11-19T01:52:35;12.05;;;11.45;;
1765;SDS011;880;52.452;8.656;2023-11-19T01:55:04;13.18;;;12.48;;
1765;SDS011;880;52.452;8.656;2023-11-19T01:57:33;12.02;;;11.43;;
1765;SDS011;880;52.452;8.656;2023-11-19T02:00:04;12.15;;;11.55;;
1765;SDS011;880;52.452;8.656;2023-11-19T02:02:39;12.15;;;11.55;;
1765;SDS011;880;52.452;8.656;2023-11-19T02:05:07;14.55;;;13.23;;
1765;SDS011;880;52.452;8.656;2023-11-19T02:07:35;13.32;;;12.52;;
1765;SDS011;880;52.452;8.656;2023-11-19T02:10:02;12.45;;;11.73;;
1765;SDS011;880;52.452;8.656;2023-11-19T02:12:32;12.98;;;12.18;;
1765;SDS011;880;52.452;8.656;2023-11-19T02:15:00;14.57;;;13.77;;
1765;SDS011;880;52.452;8.656;2023-11-19T02:17:29;14.68;;;13.68;;
1765;SDS011;880;52.452;8.656;2023-11-19T02:20:07;13.73;;;12.93;;
1765;SDS011;880;52.452;8.656;2023-11-19T02:22:41;14.90;;;14.10;;
1765;SDS011;880;52.452;8.656;2023-11-19T02:25:12;15.48;;;14.48;;
1765;SDS011;880;52.452;8.656;2023-11-19T02:27:57;15.02;;;14.15;;
1765;SDS011;880;52.452;8.656;2023-11-19T02:30:27;15.77;;;14.77;;
1765;SDS011;880;52.452;8.656;2023-11-19T02:32:55;16.60;;;15.20;;
1765;SDS011;880;52.452;8.656;2023-11-19T02:35:29;16.58;;;15.38;;
1765;SDS011;880;52.452;8.656;2023-11-19T02:37:58;17.60;;;16.10;;
1765;SDS011;880;52.452;8.656;2023-11-19T02:40:26;16.13;;;15.15;;
1765;SDS011;880;52.452;8.656;2023-11-19T02:42:54;17.08;;;15.70;;
1765;SDS011;880;52.452;8.656;2023-11-19T02:45:22;19.23;;;17.52;;
1765;SDS011;880;52.452;8.656;2023-11-19T02:47:49;18.58;;;17.05;;
1765;SDS011;880;52.452;8.656;2023-11-19T02:50:18;17.95;;;16.58;;
1765;SDS011;880;52.452;8.656;2023-11-19T02:52:52;17.17;;;15.98;;
1765;SDS011;880;52.452;8.656;2023-11-19T02:55:23;19.02;;;17.27;;
1765;SDS011;880;52.452;8.656;2023-11-19T02:57:51;20.48;;;18.58;;
1765;SDS011;880;52.452;8.656;2023-11-19T03:00:22;18.77;;;17.08;;
1765;SDS011;880;52.452;8.656;2023-11-19T03:02:51;16.88;;;15.60;;
1765;SDS011;880;52.452;8.656;2023-11-19T03:05:43;18.83;;;17.15;;
1765;SDS011;880;52.452;8.656;2023-11-19T03:08:11;19.02;;;17.48;;
1765;SDS011;880;52.452;8.656;2023-11-19T03:10:49;17.30;;;16.10;;
1765;SDS011;880;52.452;8.656;2023-11-19T03:13:16;17.70;;;16.30;;
1765;SDS011;880;52.452;8.656;2023-11-19T03:15:44;19.08;;;17.70;;
1765;SDS011;880;52.452;8.656;2023-11-19T03:18:12;19.40;;;17.75;;
1765;SDS011;880;52.452;8.656;2023-11-19T03:20:39;21.50;;;19.52;;
1765;SDS011;880;52.452;8.656;2023-11-19T03:23:06;18.50;;;17.15;;
1765;SDS011;880;52.452;8.656;2023-11-19T03:25:33;21.65;;;19.52;;
1765;SDS011;880;52.452;8.656;2023-11-19T03:28:03;17.20;;;16.08;;
1765;SDS011;880;52.452;8.656;2023-11-19T03:30:31;20.83;;;18.98;;
1765;SDS011;880;52.452;8.656;2023-11-19T03:33:00;21.67;;;19.58;;
1765;SDS011;880;52.452;8.656;2023-11-19T03:35:28;20.80;;;18.77;;
1765;SDS011;880;52.452;8.656;2023-11-19T03:37:56;18.05;;;16.75;;
1765;SDS011;880;52.452;8.656;2023-11-19T03:40:23;19.85;;;18.15;;
1765;SDS011;880;52.452;8.656;2023-11-19T03:42:52;20.45;;;18.70;;
1765;SDS011;880;52.452;8.656;2023-11-19T03:45:19;21.60;;;19.65;;
1765;SDS011;880;52.452;8.656;2023-11-19T03:47:47;22.15;;;19.42;;
1765;SDS011;880;52.452;8.656;2023-11-19T03:50:16;20.20;;;18.25;;
1765;SDS011;880;52.452;8.656;2023-11-19T03:52:46;20.75;;;19.02;;
1765;SDS011;880;52.452;8.656;2023-11-19T03:55:14;22.02;;;19.92;;
1765;SDS011;880;52.452;8.656;2023-11-19T03:57:41;21.40;;;19.30;;
1765;SDS011;880;52.452;8.656;2023-11-19T04:00:08;22.35;;;20.15;;
1765;SDS011;880;52.452;8.656;2023-11-19T04:02:39;21.45;;;19.40;;
1765;SDS011;880;52.452;8.656;2023-11-19T04:05:07;19.25;;;17.63;;
1765;SDS011;880;52.452;8.656;2023-11-19T04:07:34;22.02;;;19.77;;
1765;SDS011;880;52.452;8.656;2023-11-19T04:10:02;20.42;;;18.65;;
1765;SDS011;880;52.452;8.656;2023-11-19T04:12:30;22.50;;;19.60;;
1765;SDS011;880;52.452;8.656;2023-11-19T04:14:57;17.02;;;15.80;;
1765;SDS011;880;52.452;8.656;2023-11-19T04:17:27;18.95;;;17.35;;
1765;SDS011;880;52.452;8.656;2023-11-19T04:19:54;20.10;;;18.38;;
1765;SDS011;880;52.452;8.656;2023-11-19T04:22:22;19.17;;;17.67;;
1765;SDS011;880;52.452;8.656;2023-11-19T04:24:50;19.92;;;18.30;;
1765;SDS011;880;52.452;8.656;2023-11-19T04:27:17;17.38;;;16.17;;
1765;SDS011;880;52.452;8.656;2023-11-19T04:29:44;19.88;;;18.08;;
1765;SDS011;880;52.452;8.656;2023-11-19T04:32:14;19.85;;;17.90;;
1765;SDS011;880;52.452;8.656;2023-11-19T04:34:41;18.20;;;16.75;;
1765;SDS011;880;52.452;8.656;2023-11-19T04:37:08;18.17;;;16.45;;
1765;SDS011;880;52.452;8.656;2023-11-19T04:39:38;17.60;;;16.23;;
1765;SDS011;880;52.452;8.656;2023-11-19T04:42:05;17.88;;;16.38;;
1765;SDS011;880;52.452;8.656;2023-11-19T04:44:33;17.65;;;16.13;;
1765;SDS011;880;52.452;8.656;2023-11-19T04:47:00;15.32;;;14.43;;
1765;SDS011;880;52.452;8.656;2023-11-19T04:49:27;16.63;;;15.55;;
1765;SDS011;880;52.452;8.656;2023-11-19T04:51:54;16.83;;;15.32;;
1765;SDS011;880;52.452;8.656;2023-11-19T04:54:22;17.23;;;15.98;;
1765;SDS011;880;52.452;8.656;2023-11-19T04:56:49;16.23;;;15.00;;
1765;SDS011;880;52.452;8.656;2023-11-19T04:59:16;13.35;;;12.65;;
1765;SDS011;880;52.452;8.656;2023-11-19T05:01:46;14.80;;;13.57;;
1765;SDS011;880;52.452;8.656;2023-11-19T05:04:14;15.93;;;14.60;;
1765;SDS011;880;52.452;8.656;2023-11-19T05:06:41;16.20;;;14.98;;
1765;SDS011;880;52.452;8.656;2023-11-19T05:09:09;19.67;;;13.43;;
1765;SDS011;880;52.452;8.656;2023-11-19T05:11:38;16.67;;;15.38;;
1765;SDS011;880;52.452;8.656;2023-11-19T05:14:17;14.23;;;13.15;;
1765;SDS011;880;52.452;8.656;2023-11-19T05:16:47;15.38;;;14.13;;
1765;SDS011;880;52.452;8.656;2023-11-19T05:19:15;15.20;;;14.00;;
1765;SDS011;880;52.452;8.656;2023-11-19T05:21:42;16.45;;;13.98;;
1765;SDS011;880;52.452;8.656;2023-11-19T05:24:10;13.75;;;12.95;;
1765;SDS011;880;52.452;8.656;2023-11-19T05:26:40;16.48;;;14.77;;
1765;SDS011;880;52.452;8.656;2023-11-19T05:29:07;15.13;;;13.90;;
1765;SDS011;880;52.452;8.656;2023-11-19T05:31:34;12.23;;;11.70;;
1765;SDS011;880;52.452;8.656;2023-11-19T05:34:03;14.93;;;13.43;;
1765;SDS011;880;52.452;8.656;2023-11-19T05:36:31;13.70;;;12.27;;
1765;SDS011;880;52.452;8.656;2023-11-19T05:38:58;14.77;;;13.07;;
1765;SDS011;880;52.452;8.656;2023-11-19T05:41:25;14.75;;;13.88;;
1765;SDS011;880;52.452;8.656;2023-11-19T05:43:52;13.35;;;12.50;;
1765;SDS011;880;52.452;8.656;2023-11-19T05:46:19;12.15;;;11.52;;
1765;SDS011;880;52.452;8.656;2023-11-19T05:48:47;22.63;;;12.32;;
1765;SDS011;880;52.452;8.656;2023-11-19T05:51:14;13.20;;;11.90;;
1765;SDS011;880;52.452;8.656;2023-11-19T05:53:42;12.15;;;11.25;;
1765;SDS011;880;52.452;8.656;2023-11-19T05:56:10;11.35;;;10.85;;
1765;SDS011;880;52.452;8.656;2023-11-19T05:58:37;11.48;;;10.95;;
1765;SDS011;880;52.452;8.656;2023-11-19T06:01:05;13.18;;;12.05;;
1765;SDS011;880;52.452;8.656;2023-11-19T06:03:34;11.68;;;10.52;;
1765;SDS011;880;52.452;8.656;2023-11-19T06:06:03;12.10;;;11.27;;
1765;SDS011;880;52.452;8.656;2023-11-19T06:08:31;19.10;;;11.38;;
1765;SDS011;880;52.452;8.656;2023-11-19T06:10:58;12.45;;;11.68;;
1765;SDS011;880;52.452;8.656;2023-11-19T06:13:27;22.88;;;11.90;;
1765;SDS011;880;52.452;8.656;2023-11-19T06:18:25;11.85;;;11.32;;
1765;SDS011;880;52.452;8.656;2023-11-19T06:20:52;13.27;;;12.15;;
1765;SDS011;880;52.452;8.656;2023-11-19T06:23:19;12.90;;;12.07;;
1765;SDS011;880;52.452;8.656;2023-11-19T06:25:46;13.32;;;12.15;;
1765;SDS011;880;52.452;8.656;2023-11-19T06:28:13;12.30;;;11.25;;
1765;SDS011;880;52.452;8.656;2023-11-19T06:30:41;12.80;;;11.90;;
1765;SDS011;880;52.452;8.656;2023-11-19T06:33:09;13.48;;;12.38;;
1765;SDS011;880;52.452;8.656;2023-11-19T06:35:39;13.63;;;12.40;;
1765;SDS011;880;52.452;8.656;2023-11-19T06:38:06;13.57;;;12.63;;
1765;SDS011;880;52.452;8.656;2023-11-19T06:40:33;14.23;;;12.90;;
1765;SDS011;880;52.452;8.656;2023-11-19T06:43:04;11.77;;;11.00;;
1765;SDS011;880;52.452;8.656;2023-11-19T06:45:34;12.90;;;11.75;;
1765;SDS011;880;52.452;8.656;2023-11-19T06:48:03;11.90;;;11.07;;
1765;SDS011;880;52.452;8.656;2023-11-19T06:50:31;12.05;;;10.98;;
1765;SDS011;880;52.452;8.656;2023-11-19T06:52:58;9.93;;;9.30;;
1765;SDS011;880;52.452;8.656;2023-11-19T06:55:28;12.20;;;10.40;;
1765;SDS011;880;52.452;8.656;2023-11-19T06:57:56;12.27;;;10.18;;
1765;SDS011;880;52.452;8.656;2023-11-19T07:00:26;11.02;;;10.18;;
1765;SDS011;880;52.452;8.656;2023-11-19T07:02:53;11.90;;;10.65;;
1765;SDS011;880;52.452;8.656;2023-11-19T07:05:20;13.27;;;11.48;;
1765;SDS011;880;52.452;8.656;2023-11-19T07:07:47;16.48;;;10.35;;
1765;SDS011;880;52.452;8.656;2023-11-19T07:10:14;10.98;;;9.75;;
1765;SDS011;880;52.452;8.656;2023-11-19T07:12:41;11.48;;;8.63;;
1765;SDS011;880;52.452;8.656;2023-11-19T07:15:08;11.65;;;10.57;;
1765;SDS011;880;52.452;8.656;2023-11-19T07:17:36;11.45;;;10.30;;
1765;SDS011;880;52.452;8.656;2023-11-19T07:20:03;19.25;;;11.43;;
1765;SDS011;880;52.452;8.656;2023-11-19T07:22:32;10.93;;;9.98;;
1765;SDS011;880;52.452;8.656;2023-11-19T07:24:59;15.07;;;12.15;;
1765;SDS011;880;52.452;8.656;2023-11-19T07:27:26;14.07;;;10.90;;
1765;SDS011;880;52.452;8.656;2023-11-19T07:29:53;31.95;;;12.77;;
1765;SDS011;880;52.452;8.656;2023-11-19T07:32:20;13.27;;;11.82;;
1765;SDS011;880;52.452;8.656;2023-11-19T07:34:47;11.68;;;10.52;;
1765;SDS011;880;52.452;8.656;2023-11-19T07:37:15;10.52;;;9.45;;
1765;SDS011;880;52.452;8.656;2023-11-19T07:39:43;15.63;;;9.63;;
1765;SDS011;880;52.452;8.656;2023-11-19T07:42:10;11.98;;;9.45;;
1765;SDS011;880;52.452;8.656;2023-11-19T07:44:37;13.52;;;11.57;;
1765;SDS011;880;52.452;8.656;2023-11-19T07:47:04;18.45;;;11.07;;
1765;SDS011;880;52.452;8.656;2023-11-19T07:49:31;17.33;;;10.73;;
1765;SDS011;880;52.452;8.656;2023-11-19T07:51:58;14.57;;;10.65;;
1765;SDS011;880;52.452;8.656;2023-11-19T07:54:25;14.25;;;11.93;;
1765;SDS011;880;52.452;8.656;2023-11-19T07:56:52;16.02;;;11.20;;
1765;SDS011;880;52.452;8.656;2023-11-19T07:59:20;10.77;;;9.45;;
1765;SDS011;880;52.452;8.656;2023-11-19T08:01:47;15.65;;;11.02;;
1765;SDS011;880;52.452;8.656;2023-11-19T08:04:14;12.32;;;10.80;;
1765;SDS011;880;52.452;8.656;2023-11-19T08:06:42;11.57;;;10.60;;
1765;SDS011;880;52.452;8.656;2023-11-19T08:09:09;13.75;;;9.95;;
1765;SDS011;880;52.452;8.656;2023-11-19T08:11:40;12.90;;;11.32;;
1765;SDS011;880;52.452;8.656;2023-11-19T08:14:08;10.68;;;9.82;;
1765;SDS011;880;52.452;8.656;2023-11-19T08:16:36;11.68;;;10.40;;
1765;SDS011;880;52.452;8.656;2023-11-19T08:19:04;12.43;;;10.68;;
1765;SDS011;880;52.452;8.656;2023-11-19T08:21:31;10.48;;;9.73;;
1765;SDS011;880;52.452;8.656;2023-11-19T08:23:58;15.32;;;9.55;;
1765;SDS011;880;52.452;8.656;2023-11-19T08:26:25;18.55;;;11.82;;
1765;SDS011;880;52.452;8.656;2023-11-19T08:28:52;11.15;;;10.20;;
1765;SDS011;880;52.452;8.656;2023-11-19T08:31:19;12.18;;;10.70;;
1765;SDS011;880;52.452;8.656;2023-11-19T08:33:46;13.27;;;11.25;;
1765;SDS011;880;52.452;8.656;2023-11-19T08:36:16;11.38;;;10.25;;
1765;SDS011;880;52.452;8.656;2023-11-19T08:38:44;22.23;;;11.75;;
1765;SDS011;880;52.452;8.656;2023-11-19T08:41:11;17.42;;;10.82;;
1765;SDS011;880;52.452;8.656;2023-11-19T08:43:38;12.95;;;10.10;;
1765;SDS011;880;52.452;8.656;2023-11-19T08:46:10;13.57;;;11.43;;
1765;SDS011;880;52.452;8.656;2023-11-19T08:48:38;10.73;;;9.95;;
1765;SDS011;880;52.452;8.656;2023-11-19T08:51:05;12.07;;;10.45;;
1765;SDS011;880;52.452;8.656;2023-11-19T08:53:32;14.80;;;10.18;;
1765;SDS011;880;52.452;8.656;2023-11-19T08:56:00;12.15;;;10.80;;
1765;SDS011;880;52.452;8.656;2023-11-19T08:58:29;10.43;;;9.48;;
1765;SDS011;880;52.452;8.656;2023-11-19T09:00:57;10.40;;;9.48;;
1765;SDS011;880;52.452;8.656;2023-11-19T09:03:24;11.15;;;8.98;;
1765;SDS011;880;52.452;8.656;2023-11-19T09:05:56;16.23;;;10.07;;
1765;SDS011;880;52.452;8.656;2023-11-19T09:08:24;11.82;;;10.80;;
1765;SDS011;880;52.452;8.656;2023-11-19T09:10:51;16.25;;;11.02;;
1765;SDS011;880;52.452;8.656;2023-11-19T09:13:18;12.88;;;9.52;;
1765;SDS011;880;52.452;8.656;2023-11-19T09:15:45;13.23;;;9.75;;
1765;SDS011;880;52.452;8.656;2023-11-19T09:18:12;13.45;;;11.45;;
1765;SDS011;880;52.452;8.656;2023-11-19T09:20:39;12.98;;;10.10;;
1765;SDS011;880;52.452;8.656;2023-11-19T09:23:07;12.90;;;10.70;;
1765;SDS011;880;52.452;8.656;2023-11-19T09:25:35;10.45;;;9.80;;
1765;SDS011;880;52.452;8.656;2023-11-19T09:28:05;13.43;;;10.55;;
1765;SDS011;880;52.452;8.656;2023-11-19T09:30:35;18.77;;;12.45;;
1765;SDS011;880;52.452;8.656;2023-11-19T09:33:02;19.98;;;11.02;;
1765;SDS011;880;52.452;8.656;2023-11-19T09:35:29;10.90;;;9.45;;
1765;SDS011;880;52.452;8.656;2023-11-19T09:37:56;11.68;;;9.93;;
1765;SDS011;880;52.452;8.656;2023-11-19T09:40:23;12.70;;;11.48;;
1765;SDS011;880;52.452;8.656;2023-11-19T09:42:50;10.43;;;9.73;;
1765;SDS011;880;52.452;8.656;2023-11-19T09:45:17;13.43;;;10.93;;
1765;SDS011;880;52.452;8.656;2023-11-19T09:47:47;20.27;;;11.98;;
1765;SDS011;880;52.452;8.656;2023-11-19T09:50:19;16.95;;;13.32;;
1765;SDS011;880;52.452;8.656;2023-11-19T09:52:47;12.20;;;10.82;;
1765;SDS011;880;52.452;8.656;2023-11-19T09:55:14;11.43;;;10.45;;
1765;SDS011;880;52.452;8.656;2023-11-19T09:57:41;10.48;;;9.32;;
1765;SDS011;880;52.452;8.656;2023-11-19T10:00:10;20.23;;;12.02;;
1765;SDS011;880;52.452;8.656;2023-11-19T10:02:42;10.75;;;10.07;;
1765;SDS011;880;52.452;8.656;2023-11-19T10:05:13;13.93;;;11.30;;
1765;SDS011;880;52.452;8.656;2023-11-19T10:07:41;11.75;;;10.70;;
1765;SDS011;880;52.452;8.656;2023-11-19T10:10:09;11.23;;;10.10;;
1765;SDS011;880;52.452;8.656;2023-11-19T10:12:40;14.38;;;9.85;;
1765;SDS011;880;52.452;8.656;2023-11-19T10:15:24;16.13;;;10.90;;
1765;SDS011;880;52.452;8.656;2023-11-19T10:17:56;12.85;;;11.63;;
1765;SDS011;880;52.452;8.656;2023-11-19T10:20:24;12.10;;;10.20;;
1765;SDS011;880;52.452;8.656;2023-11-19T10:22:55;14.52;;;13.00;;
1765;SDS011;880;52.452;8.656;2023-11-19T10:25:23;14.88;;;12.23;;
1765;SDS011;880;52.452;8.656;2023-11-19T10:27:52;12.32;;;11.10;;
1765;SDS011;880;52.452;8.656;2023-11-19T10:30:20;19.25;;;12.02;;
1765;SDS011;880;52.452;8.656;2023-11-19T10:33:10;17.55;;;12.73;;
1765;SDS011;880;52.452;8.656;2023-11-19T10:35:51;11.93;;;10.57;;
1765;SDS011;880;52.452;8.656;2023-11-19T10:38:26;10.10;;;9.25;;
1765;SDS011;880;52.452;8.656;2023-11-19T10:40:53;12.30;;;11.15;;
1765;SDS011;880;52.452;8.656;2023-11-19T10:43:21;15.60;;;12.63;;
1765;SDS011;880;52.452;8.656;2023-11-19T10:45:49;17.50;;;11.60;;
1765;SDS011;880;52.452;8.656;2023-11-19T10:48:16;13.27;;;12.15;;
1765;SDS011;880;52.452;8.656;2023-11-19T10:50:45;16.63;;;9.95;;
1765;SDS011;880;52.452;8.656;2023-11-19T10:53:20;15.80;;;10.80;;
1765;SDS011;880;52.452;8.656;2023-11-19T10:55:49;12.20;;;10.43;;
1765;SDS011;880;52.452;8.656;2023-11-19T10:58:17;12.95;;;11.75;;
1765;SDS011;880;52.452;8.656;2023-11-19T11:00:46;13.98;;;11.05;;
1765;SDS011;880;52.452;8.656;2023-11-19T11:03:19;17.38;;;11.80;;
1765;SDS011;880;52.452;8.656;2023-11-19T11:05:52;15.77;;;10.85;;
1765;SDS011;880;52.452;8.656;2023-11-19T11:08:20;13.23;;;12.00;;
1765;SDS011;880;52.452;8.656;2023-11-19T11:10:56;10.77;;;10.07;;
1765;SDS011;880;52.452;8.656;2023-11-19T11:13:24;14.00;;;11.07;;
1765;SDS011;880;52.452;8.656;2023-11-19T11:15:56;16.13;;;11.35;;
1765;SDS011;880;52.452;8.656;2023-11-19T11:18:27;12.30;;;10.90;;
1765;SDS011;880;52.452;8.656;2023-11-19T11:20:59;17.27;;;11.88;;
1765;SDS011;880;52.452;8.656;2023-11-19T11:33:06;21.88;;;14.70;;
1765;SDS011;880;52.452;8.656;2023-11-19T11:38:35;14.32;;;12.82;;
1765;SDS011;880;52.452;8.656;2023-11-19T11:41:19;18.85;;;11.82;;
1765;SDS011;880;52.452;8.656;2023-11-19T11:43:53;11.82;;;10.93;;
1765;SDS011;880;52.452;8.656;2023-11-19T11:49:07;10.10;;;9.35;;
1765;SDS011;880;52.452;8.656;2023-11-19T11:54:14;10.55;;;9.80;;
1765;SDS011;880;52.452;8.656;2023-11-19T11:57:04;16.83;;;11.30;;
1765;SDS011;880;52.452;8.656;2023-11-19T12:02:08;16.95;;;11.27;;
1765;SDS011;880;52.452;8.656;2023-11-19T12:04:48;18.20;;;12.90;;
1765;SDS011;880;52.452;8.656;2023-11-19T12:07:18;11.52;;;10.25;;
1765;SDS011;880;52.452;8.656;2023-11-19T12:09:51;23.00;;;13.93;;
1765;SDS011;880;52.452;8.656;2023-11-19T12:12:35;12.00;;;11.02;;
1765;SDS011;880;52.452;8.656;2023-11-19T12:15:05;11.02;;;9.65;;
1765;SDS011;880;52.452;8.656;2023-11-19T12:17:37;12.20;;;10.50;;
1765;SDS011;880;52.452;8.656;2023-11-19T12:20:17;11.50;;;10.40;;
1765;SDS011;880;52.452;8.656;2023-11-19T12:22:49;19.25;;;10.98;;
1765;SDS011;880;52.452;8.656;2023-11-19T12:25:17;14.32;;;9.63;;
1765;SDS011;880;52.452;8.656;2023-11-19T12:27:48;10.43;;;9.65;;
1765;SDS011;880;52.452;8.656;2023-11-19T12:30:20;17.58;;;9.50;;
1765;SDS011;880;52.452;8.656;2023-11-19T12:32:53;16.73;;;11.73;;
1765;SDS011;880;52.452;8.656;2023-11-19T12:35:21;14.05;;;10.25;;
1765;SDS011;880;52.452;8.656;2023-11-19T12:37:50;10.40;;;9.40;;
1765;SDS011;880;52.452;8.656;2023-11-19T12:40:22;13.50;;;10.13;;
1765;SDS011;880;52.452;8.656;2023-11-19T12:42:52;12.75;;;11.43;;
1765;SDS011;880;52.452;8.656;2023-11-19T12:45:20;22.15;;;12.52;;
1765;SDS011;880;52.452;8.656;2023-11-19T12:50:49;10.23;;;9.23;;
1765;SDS011;880;52.452;8.656;2023-11-19T12:53:17;49.72;;;18.67;;
1765;SDS011;880;52.452;8.656;2023-11-19T12:55:44;12.48;;;9.68;;
1765;SDS011;880;52.452;8.656;2023-11-19T12:58:27;12.88;;;11.00;;
1765;SDS011;880;52.452;8.656;2023-11-19T13:01:06;18.55;;;12.35;;
1765;SDS011;880;52.452;8.656;2023-11-19T13:03:37;14.10;;;10.55;;
1765;SDS011;880;52.452;8.656;2023-11-19T13:06:06;20.77;;;10.60;;
1765;SDS011;880;52.452;8.656;2023-11-19T13:08:41;15.18;;;9.27;;
1765;SDS011;880;52.452;8.656;2023-11-19T13:11:12;16.60;;;10.07;;
1765;SDS011;880;52.452;8.656;2023-11-19T13:13:56;10.73;;;9.50;;
1765;SDS011;880;52.452;8.656;2023-11-19T13:16:30;19.30;;;11.93;;
1765;SDS011;880;52.452;8.656;2023-11-19T13:18:58;19.80;;;10.65;;
1765;SDS011;880;52.452;8.656;2023-11-19T13:21:26;14.63;;;9.15;;
1765;SDS011;880;52.452;8.656;2023-11-19T13:23:53;14.38;;;9.82;;
1765;SDS011;880;52.452;8.656;2023-11-19T13:26:21;10.00;;;9.35;;
1765;SDS011;880;52.452;8.656;2023-11-19T13:28:48;11.05;;;10.00;;
1765;SDS011;880;52.452;8.656;2023-11-19T13:31:15;19.02;;;10.57;;
1765;SDS011;880;52.452;8.656;2023-11-19T13:33:43;10.15;;;9.35;;
1765;SDS011;880;52.452;8.656;2023-11-19T13:36:10;16.40;;;10.07;;
1765;SDS011;880;52.452;8.656;2023-11-19T13:38:42;10.80;;;9.20;;
1765;SDS011;880;52.452;8.656;2023-11-19T13:41:10;11.40;;;9.85;;
1765;SDS011;880;52.452;8.656;2023-11-19T13:43:39;17.90;;;8.88;;
1765;SDS011;880;52.452;8.656;2023-11-19T13:46:06;14.73;;;9.90;;
1765;SDS011;880;52.452;8.656;2023-11-19T13:48:36;23.33;;;9.65;;
1765;SDS011;880;52.452;8.656;2023-11-19T13:51:04;9.40;;;8.18;;
1765;SDS011;880;52.452;8.656;2023-11-19T13:53:31;12.65;;;8.65;;
1765;SDS011;880;52.452;8.656;2023-11-19T13:56:17;10.50;;;9.52;;
1765;SDS011;880;52.452;8.656;2023-11-19T13:58:44;10.65;;;9.35;;
1765;SDS011;880;52.452;8.656;2023-11-19T14:01:11;10.57;;;9.57;;
1765;SDS011;880;52.452;8.656;2023-11-19T14:03:39;12.75;;;8.40;;
1765;SDS011;880;52.452;8.656;2023-11-19T14:06:08;16.00;;;9.82;;
1765;SDS011;880;52.452;8.656;2023-11-19T14:08:35;10.52;;;8.60;;
1765;SDS011;880;52.452;8.656;2023-11-19T14:11:04;12.55;;;9.48;;
1765;SDS011;880;52.452;8.656;2023-11-19T14:13:31;21.58;;;11.50;;
1765;SDS011;880;52.452;8.656;2023-11-19T14:15:59;29.00;;;14.98;;
1765;SDS011;880;52.452;8.656;2023-11-19T14:18:26;18.77;;;10.25;;
1765;SDS011;880;52.452;8.656;2023-11-19T14:20:53;12.85;;;9.63;;
1765;SDS011;880;52.452;8.656;2023-11-19T14:23:20;17.95;;;11.40;;
1765;SDS011;880;52.452;8.656;2023-11-19T14:25:47;21.35;;;10.82;;
1765;SDS011;880;52.452;8.656;2023-11-19T14:28:16;9.80;;;8.93;;
1765;SDS011;880;52.452;8.656;2023-11-19T14:30:43;10.10;;;9.35;;
1765;SDS011;880;52.452;8.656;2023-11-19T14:33:11;12.43;;;10.82;;
1765;SDS011;880;52.452;8.656;2023-11-19T14:35:38;28.50;;;9.90;;
1765;SDS011;880;52.452;8.656;2023-11-19T14:38:05;21.95;;;11.52;;
1765;SDS011;880;52.452;8.656;2023-11-19T14:40:36;14.30;;;10.15;;
1765;SDS011;880;52.452;8.656;2023-11-19T14:43:06;22.65;;;9.27;;
1765;SDS011;880;52.452;8.656;2023-11-19T14:45:36;14.38;;;10.82;;
1765;SDS011;880;52.452;8.656;2023-11-19T14:48:14;15.18;;;11.15;;
1765;SDS011;880;52.452;8.656;2023-11-19T14:50:41;13.25;;;10.25;;
1765;SDS011;880;52.452;8.656;2023-11-19T14:53:08;10.52;;;9.85;;
1765;SDS011;880;52.452;8.656;2023-11-19T14:55:35;11.38;;;10.20;;
1765;SDS011;880;52.452;8.656;2023-11-19T14:58:02;11.82;;;9.80;;
1765;SDS011;880;52.452;8.656;2023-11-19T15:00:36;14.65;;;8.85;;
1765;SDS011;880;52.452;8.656;2023-11-19T15:03:03;11.73;;;9.88;;
1765;SDS011;880;52.452;8.656;2023-11-19T15:05:30;13.57;;;8.57;;
1765;SDS011;880;52.452;8.656;2023-11-19T15:07:57;10.20;;;9.25;;
1765;SDS011;880;52.452;8.656;2023-11-19T15:10:24;17.70;;;9.90;;
1765;SDS011;880;52.452;8.656;2023-11-19T15:12:52;11.95;;;7.22;;
1765;SDS011;880;52.452;8.656;2023-11-19T15:15:20;9.82;;;8.32;;
1765;SDS011;880;52.452;8.656;2023-11-19T15:17:51;15.63;;;7.15;;
1765;SDS011;880;52.452;8.656;2023-11-19T15:20:18;11.23;;;7.90;;
1765;SDS011;880;52.452;8.656;2023-11-19T15:22:46;9.07;;;8.30;;
1765;SDS011;880;52.452;8.656;2023-11-19T15:25:13;8.98;;;7.22;;
1765;SDS011;880;52.452;8.656;2023-11-19T15:27:40;10.77;;;8.52;;
1765;SDS011;880;52.452;8.656;2023-11-19T15:30:07;8.20;;;7.40;;
1765;SDS011;880;52.452;8.656;2023-11-19T15:32:36;10.20;;;7.93;;
1765;SDS011;880;52.452;8.656;2023-11-19T15:35:05;12.43;;;8.55;;
1765;SDS011;880;52.452;8.656;2023-11-19T15:37:40;8.40;;;7.63;;
1765;SDS011;880;52.452;8.656;2023-11-19T15:40:09;19.05;;;8.38;;
1765;SDS011;880;52.452;8.656;2023-11-19T15:42:39;8.77;;;8.10;;
1765;SDS011;880;52.452;8.656;2023-11-19T15:45:06;21.48;;;10.93;;
1765;SDS011;880;52.452;8.656;2023-11-19T15:47:34;15.55;;;10.32;;